createdAt,value
2023-04-07T00:01:59.144Z,12.40
2023-04-07T00:04:25.564Z,14.77
2023-04-07T00:06:51.993Z,13.52
2023-04-07T00:09:18.200Z,13.32
2023-04-07T00:11:44.461Z,14.77
2023-04-07T00:14:10.741Z,13.55
2023-04-07T00:16:36.960Z,13.20
2023-04-07T00:19:03.162Z,13.90
2023-04-07T00:21:29.772Z,14.32
2023-04-07T00:23:56.924Z,13.63
2023-04-07T00:26:23.318Z,14.02
2023-04-07T00:28:49.530Z,14.65
2023-04-07T00:31:15.813Z,13.60
2023-04-07T00:33:42.255Z,13.98
2023-04-07T00:36:08.562Z,14.70
2023-04-07T00:38:34.821Z,13.90
2023-04-07T00:41:01.218Z,14.60
2023-04-07T00:43:27.455Z,13.95
2023-04-07T00:45:53.935Z,15.10
2023-04-07T00:48:20.554Z,15.43
2023-04-07T00:50:47.073Z,15.32
2023-04-07T00:53:14.156Z,14.52
2023-04-07T00:55:40.680Z,14.48
2023-04-07T00:58:07.012Z,15.15
2023-04-07T01:00:35.719Z,15.43
2023-04-07T01:03:06.358Z,15.90
2023-04-07T01:05:42.455Z,14.80
2023-04-07T01:08:10.901Z,13.50
2023-04-07T01:10:56.707Z,13.40
2023-04-07T01:13:23.605Z,12.68
2023-04-07T01:15:51.438Z,12.90
2023-04-07T01:18:20.615Z,12.38
2023-04-07T01:20:48.587Z,13.50
2023-04-07T01:23:21.478Z,12.35
2023-04-07T01:26:00.190Z,13.50
2023-04-07T01:28:29.360Z,12.43
2023-04-07T01:30:56.750Z,12.63
2023-04-07T01:33:23.091Z,12.20
2023-04-07T01:35:49.766Z,12.65
2023-04-07T01:38:16.336Z,11.73
2023-04-07T01:40:43.256Z,12.35
2023-04-07T01:43:09.722Z,12.85
2023-04-07T01:45:36.341Z,11.98
2023-04-07T01:48:05.060Z,12.82
2023-04-07T01:50:31.353Z,13.73
2023-04-07T01:52:57.629Z,13.95
2023-04-07T01:55:24.787Z,14.13
2023-04-07T01:57:53.045Z,14.57
2023-04-07T02:00:19.300Z,15.02
2023-04-07T02:02:47.840Z,15.73
2023-04-07T02:05:17.732Z,16.52
2023-04-07T02:07:51.911Z,17.42
2023-04-07T02:10:19.949Z,18.15
2023-04-07T02:12:47.051Z,17.17
2023-04-07T02:15:13.647Z,19.45
2023-04-07T02:17:41.298Z,20.23
2023-04-07T02:20:08.273Z,20.92
2023-04-07T02:22:34.772Z,21.70
2023-04-07T02:25:01.178Z,21.88
2023-04-07T02:27:27.368Z,22.27
2023-04-07T02:29:54.264Z,22.38
2023-04-07T02:32:20.606Z,21.75
2023-04-07T02:34:46.841Z,21.33
2023-04-07T02:37:13.091Z,21.98
2023-04-07T02:39:39.342Z,22.80
2023-04-07T02:42:05.769Z,23.23
2023-04-07T02:44:31.989Z,22.85
2023-04-07T02:46:58.192Z,23.23
2023-04-07T02:49:24.420Z,21.83
2023-04-07T02:51:50.729Z,22.70
2023-04-07T02:54:16.950Z,22.10
2023-04-07T02:56:43.157Z,22.85
2023-04-07T02:59:09.357Z,22.42
2023-04-07T03:01:36.326Z,22.35
2023-04-07T03:04:02.926Z,22.98
2023-04-07T03:06:29.306Z,23.23
2023-04-07T03:08:55.625Z,23.38
2023-04-07T03:11:21.807Z,23.02
2023-04-07T03:13:48.022Z,24.25
2023-04-07T03:16:14.244Z,24.52
2023-04-07T03:18:40.650Z,23.45
2023-04-07T03:21:06.845Z,23.88
2023-04-07T03:23:33.057Z,24.38
2023-04-07T03:25:59.252Z,22.23
2023-04-07T03:28:25.766Z,23.13
2023-04-07T03:30:51.990Z,22.95
2023-04-07T03:33:18.270Z,24.25
2023-04-07T03:35:44.519Z,24.13
2023-04-07T03:38:11.093Z,24.10
2023-04-07T03:40:37.514Z,22.67
2023-04-07T03:43:03.760Z,24.05
2023-04-07T03:45:30.363Z,23.10
2023-04-07T03:47:56.893Z,23.02
2023-04-07T03:50:23.140Z,22.48
2023-04-07T03:52:49.404Z,23.48
2023-04-07T03:55:15.860Z,22.33
2023-04-07T03:57:42.079Z,23.08
2023-04-07T04:00:09.036Z,23.50
2023-04-07T04:02:35.455Z,22.25
2023-04-07T04:05:01.787Z,22.50
2023-04-07T04:07:27.973Z,22.55
2023-04-07T04:09:54.223Z,24.50
2023-04-07T04:12:20.428Z,24.23
2023-04-07T04:14:46.626Z,23.17
2023-04-07T04:17:12.818Z,24.45
2023-04-07T04:19:39.075Z,23.15
2023-04-07T04:22:05.274Z,23.02
2023-04-07T04:24:31.492Z,22.25
2023-04-07T04:26:57.707Z,24.13
2023-04-07T04:29:23.914Z,23.95
2023-04-07T04:31:50.326Z,22.50
2023-04-07T04:34:17.376Z,22.77
2023-04-07T04:36:43.678Z,24.25
2023-04-07T04:39:09.941Z,22.92
2023-04-07T04:41:37.092Z,21.80
2023-04-07T04:44:03.334Z,22.15
2023-04-07T04:46:29.562Z,22.27
2023-04-07T04:48:56.334Z,23.52
2023-04-07T04:51:22.586Z,22.98
2023-04-07T04:53:48.850Z,23.30
2023-04-07T04:56:15.585Z,22.20
2023-04-07T04:58:46.011Z,21.25
2023-04-07T05:01:12.531Z,21.10
2023-04-07T05:03:38.907Z,21.27
2023-04-07T05:06:05.571Z,20.90
2023-04-07T05:08:32.086Z,18.55
2023-04-07T05:10:58.322Z,18.95
2023-04-07T05:13:25.786Z,17.30
2023-04-07T05:15:52.091Z,17.23
2023-04-07T05:18:18.337Z,17.42
2023-04-07T05:20:44.706Z,16.75
2023-04-07T05:23:11.183Z,17.60
2023-04-07T05:25:37.426Z,17.50
2023-04-07T05:28:03.813Z,17.02
2023-04-07T05:30:30.372Z,16.40
2023-04-07T05:32:56.640Z,14.52
2023-04-07T05:35:23.889Z,15.30
2023-04-07T05:37:50.892Z,16.25
2023-04-07T05:40:17.406Z,14.55
2023-04-07T05:42:43.633Z,13.95
2023-04-07T05:45:10.520Z,13.55
2023-04-07T05:47:36.887Z,14.32
2023-04-07T05:50:03.666Z,13.35
2023-04-07T05:52:30.368Z,13.80
2023-04-07T05:54:56.891Z,13.88
2023-04-07T05:57:23.408Z,13.73
2023-04-07T05:59:50.282Z,12.50
2023-04-07T06:02:17.022Z,11.93
2023-04-07T06:04:43.587Z,12.65
2023-04-07T06:07:13.240Z,12.07
2023-04-07T06:09:40.043Z,12.10
2023-04-07T06:12:07.236Z,11.40
2023-04-07T06:14:33.799Z,11.43
2023-04-07T06:17:00.773Z,10.63
2023-04-07T06:19:27.882Z,11.05
2023-04-07T06:21:54.603Z,9.70
2023-04-07T06:24:22.870Z,9.68
2023-04-07T06:26:49.295Z,9.13
2023-04-07T06:29:16.325Z,8.63
2023-04-07T06:31:45.936Z,7.70
2023-04-07T06:34:12.724Z,7.82
2023-04-07T06:36:39.455Z,7.65
2023-04-07T06:39:05.693Z,7.65
2023-04-07T06:41:32.508Z,7.03
2023-04-07T06:43:58.780Z,6.57
2023-04-07T06:46:26.992Z,7.07
2023-04-07T06:48:53.307Z,6.35
2023-04-07T06:51:19.544Z,5.80
2023-04-07T06:53:48.607Z,6.00
2023-04-07T06:56:15.352Z,5.90
2023-04-07T06:58:41.633Z,5.90
2023-04-07T07:01:07.895Z,6.00
2023-04-07T07:03:34.409Z,6.68
2023-04-07T07:06:01.110Z,6.47
2023-04-07T07:08:27.646Z,6.18
2023-04-07T07:10:54.214Z,5.63
2023-04-07T07:13:23.215Z,6.05
2023-04-07T07:15:49.889Z,7.47
2023-04-07T07:18:16.641Z,6.72
2023-04-07T07:20:42.918Z,6.57
2023-04-07T07:23:09.323Z,8.20
2023-04-07T07:25:35.748Z,7.75
2023-04-07T07:28:03.159Z,8.82
2023-04-07T07:30:29.708Z,7.53
2023-04-07T07:32:56.238Z,8.23
2023-04-07T07:35:22.638Z,7.55
2023-04-07T07:37:48.894Z,7.88
2023-04-07T07:40:15.756Z,8.32
2023-04-07T07:42:42.298Z,7.68
2023-04-07T07:45:08.757Z,7.82
2023-04-07T07:47:37.537Z,8.38
2023-04-07T07:50:04.567Z,7.68
2023-04-07T07:52:31.086Z,7.32
2023-04-07T07:54:57.328Z,7.63
2023-04-07T07:57:23.551Z,7.40
2023-04-07T07:59:49.783Z,7.68
2023-04-07T08:02:16.217Z,6.97
2023-04-07T08:04:42.520Z,7.70
2023-04-07T08:07:08.759Z,7.10
2023-04-07T08:09:35.153Z,7.28
2023-04-07T08:12:01.438Z,7.63
2023-04-07T08:14:27.662Z,7.57
2023-04-07T08:16:53.939Z,8.20
2023-04-07T08:19:20.174Z,7.75
2023-04-07T08:21:46.402Z,7.22
2023-04-07T08:24:12.724Z,7.88
2023-04-07T08:26:38.998Z,7.38
2023-04-07T08:29:05.330Z,6.88
2023-04-07T08:31:31.591Z,7.40
2023-04-07T08:33:58.797Z,7.35
2023-04-07T08:36:26.312Z,6.95
2023-04-07T08:38:52.637Z,6.65
2023-04-07T08:41:21.784Z,6.93
2023-04-07T08:43:49.505Z,6.88
2023-04-07T08:46:18.073Z,7.53
2023-04-07T08:48:44.762Z,7.20
2023-04-07T08:51:13.878Z,6.75
2023-04-07T08:53:45.129Z,7.05
2023-04-07T08:56:12.949Z,7.30
2023-04-07T08:58:39.750Z,7.15
2023-04-07T09:01:06.694Z,7.43
2023-04-07T09:03:34.033Z,6.60
2023-04-07T09:06:01.407Z,7.15
2023-04-07T09:08:28.068Z,6.70
2023-04-07T09:10:54.490Z,7.70
2023-04-07T09:13:20.716Z,7.07
2023-04-07T09:15:47.261Z,6.72
2023-04-07T09:18:14.749Z,6.82
2023-04-07T09:20:59.541Z,7.03
2023-04-07T09:23:33.060Z,7.20
2023-04-07T09:26:01.434Z,7.65
2023-04-07T09:28:48.204Z,6.68
2023-04-07T09:31:14.477Z,7.38
2023-04-07T09:33:40.924Z,7.07
2023-04-07T09:36:07.312Z,7.05
2023-04-07T09:38:34.500Z,7.32
2023-04-07T09:41:11.300Z,7.35
2023-04-07T09:43:38.754Z,7.35
2023-04-07T09:46:24.910Z,7.05
2023-04-07T09:49:01.613Z,7.43
2023-04-07T09:51:28.330Z,7.50
2023-04-07T09:53:54.539Z,6.90
2023-04-07T09:56:24.296Z,7.63
2023-04-07T09:58:53.756Z,7.50
2023-04-07T10:01:21.608Z,8.45
2023-04-07T10:03:48.436Z,8.75
2023-04-07T10:06:14.916Z,9.57
2023-04-07T10:08:42.534Z,9.52
2023-04-07T10:11:09.370Z,9.88
2023-04-07T10:13:36.630Z,10.25
2023-04-07T10:16:04.080Z,10.77
2023-04-07T10:18:33.813Z,10.85
2023-04-07T10:21:04.071Z,10.70
2023-04-07T10:23:49.264Z,11.15
2023-04-07T10:26:17.976Z,10.15
2023-04-07T10:28:46.508Z,11.18
2023-04-07T10:31:13.132Z,11.98
2023-04-07T10:33:52.560Z,12.77
2023-04-07T10:36:20.568Z,12.10
2023-04-07T10:39:23.209Z,11.75
2023-04-07T10:41:51.649Z,12.32
2023-04-07T10:44:37.202Z,11.52
2023-04-07T10:47:05.133Z,10.25
2023-04-07T10:49:32.050Z,10.93
2023-04-07T10:52:13.506Z,11.05
2023-04-07T10:54:39.903Z,10.05
2023-04-07T10:57:10.871Z,10.20
2023-04-07T10:59:38.504Z,10.60
2023-04-07T11:02:13.935Z,10.55
2023-04-07T11:04:46.893Z,10.20
2023-04-07T11:07:14.776Z,10.82
2023-04-07T11:09:41.357Z,10.77
2023-04-07T11:12:07.966Z,10.77
2023-04-07T11:14:37.255Z,10.35
2023-04-07T11:17:03.787Z,10.88
2023-04-07T11:19:32.201Z,11.10
2023-04-07T11:22:26.675Z,10.40
2023-04-07T11:24:55.393Z,11.48
2023-04-07T11:27:21.659Z,10.48
2023-04-07T11:29:47.917Z,11.38
2023-04-07T11:32:14.201Z,11.23
2023-04-07T11:34:40.659Z,10.05
2023-04-07T11:37:23.483Z,10.68
2023-04-07T11:39:56.807Z,9.88
2023-04-07T11:42:33.276Z,10.48
2023-04-07T11:44:59.500Z,10.13
2023-04-07T11:47:35.943Z,10.43
2023-04-07T11:50:02.426Z,10.00
2023-04-07T11:52:28.907Z,9.93
2023-04-07T11:54:55.251Z,10.45
2023-04-07T11:57:28.433Z,9.48
2023-04-07T12:00:06.987Z,9.88
2023-04-07T12:02:33.976Z,10.38
2023-04-07T12:05:00.650Z,9.98
2023-04-07T12:07:28.384Z,10.57
2023-04-07T12:09:55.308Z,9.88
2023-04-07T12:12:26.206Z,10.63
2023-04-07T12:14:52.622Z,11.05
2023-04-07T12:17:28.132Z,11.38
2023-04-07T12:19:54.422Z,11.00
2023-04-07T12:22:20.688Z,11.20
2023-04-07T12:24:46.907Z,11.40
2023-04-07T12:27:13.161Z,11.70
2023-04-07T12:29:39.464Z,12.02
2023-04-07T12:32:05.740Z,11.93
2023-04-07T12:34:32.043Z,11.10
2023-04-07T12:36:58.246Z,10.80
2023-04-07T12:39:24.668Z,10.30
2023-04-07T12:41:53.037Z,11.05
2023-04-07T12:44:19.419Z,10.32
2023-04-07T12:46:45.706Z,10.88
2023-04-07T12:49:11.954Z,11.18
2023-04-07T12:51:39.862Z,11.68
2023-04-07T12:54:06.251Z,11.73
2023-04-07T12:56:32.505Z,12.40
2023-04-07T12:58:58.755Z,13.02
2023-04-07T13:01:25.225Z,11.55
2023-04-07T13:03:52.129Z,13.70
2023-04-07T13:06:19.108Z,13.23
2023-04-07T13:08:45.505Z,13.70
2023-04-07T13:11:11.712Z,12.60
2023-04-07T13:13:38.000Z,12.77
2023-04-07T13:16:04.324Z,12.75
2023-04-07T13:18:30.667Z,12.23
2023-04-07T13:21:19.862Z,11.68
2023-04-07T13:23:49.477Z,11.52
2023-04-07T13:26:15.968Z,11.00
2023-04-07T13:28:45.728Z,10.30
2023-04-07T13:31:15.668Z,10.05
2023-04-07T13:33:42.083Z,11.20
2023-04-07T13:36:08.351Z,11.45
2023-04-07T13:38:34.628Z,10.38
2023-04-07T13:41:00.954Z,10.77
2023-04-07T13:43:27.566Z,10.25
2023-04-07T13:45:54.034Z,10.63
2023-04-07T13:48:20.607Z,10.18
2023-04-07T13:50:46.830Z,9.50
2023-04-07T13:53:13.112Z,8.55
2023-04-07T13:55:39.432Z,9.32
2023-04-07T13:58:05.675Z,9.10
2023-04-07T14:00:31.974Z,9.43
2023-04-07T14:02:58.344Z,8.82
2023-04-07T14:05:24.900Z,9.30
2023-04-07T14:07:51.432Z,10.00
2023-04-07T14:10:17.843Z,10.10
2023-04-07T14:12:44.072Z,10.57
2023-04-07T14:15:10.353Z,9.35
2023-04-07T14:17:37.150Z,9.07
2023-04-07T14:20:03.923Z,10.07
2023-04-07T14:22:30.290Z,9.48
2023-04-07T14:24:56.915Z,10.32
2023-04-07T14:27:23.378Z,9.57
2023-04-07T14:29:49.809Z,9.45
2023-04-07T14:32:16.831Z,9.20
2023-04-07T14:34:43.102Z,9.30
2023-04-07T14:37:09.383Z,10.00
2023-04-07T14:39:35.640Z,9.80
2023-04-07T14:42:01.929Z,9.10
2023-04-07T14:44:29.050Z,9.57
2023-04-07T14:46:55.434Z,9.50
2023-04-07T14:49:21.734Z,9.30
2023-04-07T14:51:48.399Z,9.70
2023-04-07T14:54:14.582Z,9.68
2023-04-07T14:56:41.335Z,9.40
2023-04-07T14:59:07.553Z,9.40
2023-04-07T15:01:33.944Z,8.65
2023-04-07T15:04:00.879Z,9.07
2023-04-07T15:06:27.621Z,9.13
2023-04-07T15:08:54.068Z,8.45
2023-04-07T15:11:21.486Z,8.90
2023-04-07T15:13:47.821Z,7.75
2023-04-07T15:16:14.828Z,8.07
2023-04-07T15:18:42.360Z,8.38
2023-04-07T15:21:09.024Z,8.05
2023-04-07T15:23:37.617Z,7.78
2023-04-07T15:26:04.804Z,8.90
2023-04-07T15:28:31.041Z,8.40
2023-04-07T15:30:57.528Z,8.43
2023-04-07T15:33:24.046Z,8.90
2023-04-07T15:35:50.554Z,8.80
2023-04-07T15:38:16.875Z,8.68
2023-04-07T15:40:43.285Z,8.23
2023-04-07T15:43:12.764Z,9.13
2023-04-07T15:45:40.911Z,8.63
2023-04-07T15:48:07.276Z,8.75
2023-04-07T15:50:35.896Z,8.23
2023-04-07T15:53:04.602Z,8.55
2023-04-07T15:55:31.522Z,9.00
2023-04-07T15:57:57.734Z,8.77
2023-04-07T16:00:23.971Z,7.50
2023-04-07T16:02:50.282Z,7.63
2023-04-07T16:05:16.815Z,7.70
2023-04-07T16:07:43.030Z,7.63
2023-04-07T16:10:09.359Z,7.68
2023-04-07T16:12:36.786Z,7.18
2023-04-07T16:15:03.203Z,7.35
2023-04-07T16:17:29.528Z,7.47
2023-04-07T16:19:56.287Z,6.82
2023-04-07T16:22:22.509Z,7.63
2023-04-07T16:24:48.910Z,7.05
2023-04-07T16:27:15.434Z,7.55
2023-04-07T16:29:41.662Z,6.65
2023-04-07T16:32:08.007Z,7.45
2023-04-07T16:34:35.532Z,6.72
2023-04-07T16:37:02.470Z,6.47
2023-04-07T16:39:29.574Z,6.95
2023-04-07T16:41:55.975Z,6.50
2023-04-07T16:44:22.884Z,6.60
2023-04-07T16:46:49.320Z,6.38
2023-04-07T16:49:15.607Z,7.25
2023-04-07T16:51:41.793Z,7.55
2023-04-07T16:54:08.016Z,6.65
2023-04-07T16:56:34.296Z,7.43
2023-04-07T16:59:02.727Z,6.55
2023-04-07T17:01:30.323Z,7.90
2023-04-07T17:03:56.715Z,7.05
2023-04-07T17:06:23.011Z,7.35
2023-04-07T17:08:49.208Z,7.80
2023-04-07T17:11:15.529Z,7.53
2023-04-07T17:13:41.810Z,7.78
2023-04-07T17:16:11.771Z,7.47
2023-04-07T17:18:38.131Z,7.07
2023-04-07T17:21:04.339Z,7.75
2023-04-07T17:23:30.855Z,6.95
2023-04-07T17:25:57.046Z,8.00
2023-04-07T17:28:23.379Z,7.60
2023-04-07T17:30:49.850Z,7.70
2023-04-07T17:33:16.346Z,7.07
2023-04-07T17:35:42.732Z,7.13
2023-04-07T17:38:09.071Z,7.15
2023-04-07T17:40:35.430Z,7.68
2023-04-07T17:43:01.644Z,6.63
2023-04-07T17:45:27.962Z,7.03
2023-04-07T17:47:54.964Z,7.05
2023-04-07T17:50:21.307Z,7.57
2023-04-07T17:52:47.593Z,7.55
2023-04-07T17:55:13.903Z,7.30
2023-04-07T17:57:40.445Z,7.43
2023-04-07T18:00:07.033Z,7.47
2023-04-07T18:02:33.552Z,7.25
2023-04-07T18:05:01.433Z,6.93
2023-04-07T18:07:29.328Z,8.32
2023-04-07T18:09:56.803Z,7.80
2023-04-07T18:12:23.043Z,7.50
2023-04-07T18:14:49.246Z,7.65
2023-04-07T18:17:15.586Z,7.72
2023-04-07T18:19:41.817Z,7.78
2023-04-07T18:22:09.795Z,7.47
2023-04-07T18:24:36.891Z,7.35
2023-04-07T18:27:03.929Z,7.57
2023-04-07T18:29:30.872Z,8.30
2023-04-07T18:31:57.100Z,8.93
2023-04-07T18:34:25.827Z,8.80
2023-04-07T18:36:52.085Z,9.07
2023-04-07T18:39:19.115Z,9.48
2023-04-07T18:41:47.250Z,8.32
2023-04-07T18:44:14.032Z,8.05
2023-04-07T18:46:40.429Z,9.20
2023-04-07T18:49:06.644Z,8.77
2023-04-07T18:51:32.866Z,9.05
2023-04-07T18:53:59.120Z,10.70
2023-04-07T18:56:27.290Z,9.73
2023-04-07T18:58:53.832Z,8.90
2023-04-07T19:01:20.183Z,8.65
2023-04-07T19:03:46.732Z,8.32
2023-04-07T19:06:14.331Z,9.00
2023-04-07T19:08:40.722Z,8.82
2023-04-07T19:11:07.088Z,8.50
2023-04-07T19:13:33.295Z,8.00
2023-04-07T19:16:00.169Z,8.95
2023-04-07T19:18:28.201Z,9.70
2023-04-07T19:20:54.764Z,8.90
2023-04-07T19:23:21.346Z,9.65
2023-04-07T19:25:47.811Z,9.27
2023-04-07T19:28:14.067Z,9.82
2023-04-07T19:30:40.371Z,10.43
2023-04-07T19:33:06.722Z,11.07
2023-04-07T19:35:33.309Z,10.40
2023-04-07T19:37:59.681Z,10.35
2023-04-07T19:40:26.081Z,10.85
2023-04-07T19:42:54.474Z,10.43
2023-04-07T19:45:20.678Z,11.10
2023-04-07T19:47:47.531Z,10.30
2023-04-07T19:50:17.364Z,9.93
2023-04-07T19:52:45.163Z,10.82
2023-04-07T19:55:13.914Z,10.60
2023-04-07T19:57:43.267Z,10.90
2023-04-07T20:00:10.062Z,10.70
2023-04-07T20:02:36.880Z,10.65
2023-04-07T20:05:03.548Z,10.23
2023-04-07T20:07:30.341Z,10.82
2023-04-07T20:09:57.289Z,10.88
2023-04-07T20:12:24.080Z,10.93
2023-04-07T20:14:50.505Z,10.52
2023-04-07T20:17:16.782Z,10.15
2023-04-07T20:19:42.988Z,10.88
2023-04-07T20:22:09.198Z,11.27
2023-04-07T20:24:35.881Z,11.38
2023-04-07T20:27:02.110Z,12.23
2023-04-07T20:29:28.296Z,10.57
2023-04-07T20:31:54.506Z,10.20
2023-04-07T20:34:21.789Z,10.43
2023-04-07T20:36:51.094Z,11.38
2023-04-07T20:39:17.304Z,10.05
2023-04-07T20:41:45.057Z,9.88
2023-04-07T20:44:11.558Z,11.10
2023-04-07T20:46:37.954Z,11.65
2023-04-07T20:49:07.421Z,11.50
2023-04-07T20:51:35.958Z,10.00
2023-04-07T20:54:02.635Z,11.60
2023-04-07T20:56:29.131Z,11.80
2023-04-07T20:58:55.441Z,11.27
2023-04-07T21:01:21.798Z,11.52
2023-04-07T21:03:48.206Z,11.43
2023-04-07T21:06:14.701Z,11.57
2023-04-07T21:08:40.926Z,11.65
2023-04-07T21:11:07.247Z,11.90
2023-04-07T21:13:33.445Z,12.30
2023-04-07T21:16:01.105Z,11.18
2023-04-07T21:18:27.475Z,11.10
2023-04-07T21:20:55.800Z,10.82
2023-04-07T21:23:22.007Z,10.75
2023-04-07T21:25:48.220Z,10.02
2023-04-07T21:28:14.426Z,9.70
2023-04-07T21:30:41.946Z,10.35
2023-04-07T21:33:08.430Z,10.20
2023-04-07T21:35:34.678Z,10.52
2023-04-07T21:38:01.215Z,11.00
2023-04-07T21:40:27.460Z,9.60
2023-04-07T21:42:53.685Z,10.75
2023-04-07T21:45:19.947Z,11.35
2023-04-07T21:47:46.619Z,10.93
2023-04-07T21:50:13.457Z,11.13
2023-04-07T21:52:39.700Z,12.02
2023-04-07T21:55:06.197Z,11.25
2023-04-07T21:57:32.570Z,11.45
2023-04-07T21:59:58.764Z,11.57
2023-04-07T22:02:25.190Z,11.45
2023-04-07T22:04:51.582Z,12.50
2023-04-07T22:07:17.929Z,11.45
2023-04-07T22:09:44.134Z,11.80
2023-04-07T22:12:10.347Z,11.23
2023-04-07T22:14:36.536Z,12.32
2023-04-07T22:17:02.803Z,12.73
2023-04-07T22:19:29.164Z,10.75
2023-04-07T22:21:55.377Z,10.52
2023-04-07T22:24:21.599Z,11.88
2023-04-07T22:26:47.865Z,11.70
2023-04-07T22:29:14.622Z,11.82
2023-04-07T22:31:40.923Z,11.80
2023-04-07T22:34:08.246Z,12.38
2023-04-07T22:36:34.460Z,12.63
2023-04-07T22:39:00.746Z,13.75
2023-04-07T22:41:27.289Z,12.10
2023-04-07T22:43:53.501Z,12.85
2023-04-07T22:46:19.741Z,11.77
2023-04-07T22:48:45.963Z,11.98
2023-04-07T22:51:12.243Z,11.48
2023-04-07T22:53:38.450Z,11.82
2023-04-07T22:56:04.898Z,12.85
2023-04-07T22:58:31.210Z,12.73
2023-04-07T23:00:57.667Z,12.15
2023-04-07T23:03:24.340Z,13.15
2023-04-07T23:05:50.606Z,12.27
2023-04-07T23:08:16.824Z,11.10
2023-04-07T23:10:43.106Z,11.95
2023-04-07T23:13:09.311Z,12.07
2023-04-07T23:15:38.294Z,12.68
2023-04-07T23:18:04.549Z,10.23
2023-04-07T23:20:37.544Z,10.43
2023-04-07T23:23:03.923Z,12.20
2023-04-07T23:25:30.145Z,11.43
2023-04-07T23:27:56.364Z,10.27
2023-04-07T23:30:22.568Z,10.23
2023-04-07T23:32:48.790Z,11.20
2023-04-07T23:35:15.401Z,11.57
2023-04-07T23:37:42.163Z,12.15
2023-04-07T23:40:08.778Z,11.43
2023-04-07T23:42:35.022Z,13.77
2023-04-07T23:45:01.236Z,11.98
2023-04-07T23:47:27.593Z,12.25
2023-04-07T23:49:53.804Z,11.30
2023-04-07T23:52:21.785Z,11.30
2023-04-07T23:54:48.062Z,10.52
2023-04-07T23:57:14.249Z,12.20
2023-04-07T23:59:40.509Z,13.10
